Time;durP1;ratioP1;P1;durP2;ratioP2;P2;SDS_P1;SDS_P2;PMS_P1;PMS_P2;Temp;Humidity;BMP_temperature;BMP_pressure;BME280_temperature;BME280_humidity;BME280_pressure;Samples;Min_cycle;Max_cycle;Signal;HPM_P1;HPM_P2
2022/11/07 00:01:07;;;;;;;0.10;0.10;;;10.50;99.90;;;;;;5076644;28;20043;-72
2022/11/07 00:03:32;;;;;;;0.10;0.10;;;10.50;99.90;;;;;;5081991;28;20407;-72
2022/11/07 00:05:58;;;;;;;0.10;0.10;;;10.60;99.90;;;;;;5071600;28;20044;-72
2022/11/07 00:08:30;;;;;;;0.20;0.20;;;10.60;99.90;;;;;;5076923;28;20032;-72
2022/11/07 00:10:57;;;;;;;0.20;0.20;;;10.70;99.90;;;;;;5071608;28;20040;-72
2022/11/07 00:13:23;;;;;;;0.20;0.20;;;10.70;99.90;;;;;;5076649;28;20050;-73
2022/11/07 00:15:49;;;;;;;0.10;0.10;;;10.60;99.90;;;;;;5083296;28;20066;-72
2022/11/07 00:18:14;;;;;;;0.10;0.10;;;10.70;99.90;;;;;;5079995;28;20487;-73
2022/11/07 00:20:40;;;;;;;0.20;0.20;;;10.70;99.90;;;;;;5079599;28;20036;-72
2022/11/07 00:23:08;;;;;;;0.10;0.10;;;10.70;99.90;;;;;;5069589;28;20047;-73
2022/11/07 00:25:34;;;;;;;0.15;0.15;;;11.00;99.90;;;;;;5075811;28;20081;-73
2022/11/07 00:28:00;;;;;;;0.10;0.10;;;11.00;99.90;;;;;;5077825;28;20479;-73
2022/11/07 00:30:25;;;;;;;0.20;0.20;;;10.80;99.90;;;;;;5087460;28;20087;-72
2022/11/07 00:32:51;;;;;;;0.20;0.20;;;10.80;99.90;;;;;;5086788;28;20420;-72
2022/11/07 00:35:16;;;;;;;0.13;0.13;;;10.80;99.90;;;;;;5084192;28;20051;-72
2022/11/07 00:37:42;;;;;;;0.20;0.20;;;10.80;99.90;;;;;;5083553;28;20109;-72
2022/11/07 00:40:08;;;;;;;0.10;0.10;;;10.80;99.90;;;;;;5077732;28;20059;-72
2022/11/07 00:42:34;;;;;;;0.10;0.10;;;10.80;99.90;;;;;;5087555;28;20036;-72
2022/11/07 00:44:59;;;;;;;0.13;0.13;;;10.80;99.90;;;;;;5071897;28;20048;-72
2022/11/07 00:47:25;;;;;;;0.20;0.20;;;10.80;99.90;;;;;;5071950;28;20445;-72
2022/11/07 00:49:51;;;;;;;0.15;0.15;;;10.90;99.90;;;;;;5073747;28;20047;-72
2022/11/07 00:52:16;;;;;;;0.10;0.10;;;10.90;99.90;;;;;;5067460;28;20044;-72
2022/11/07 00:54:42;;;;;;;0.20;0.20;;;10.90;99.90;;;;;;5068670;28;20048;-72
2022/11/07 00:57:07;;;;;;;0.10;0.10;;;10.90;99.90;;;;;;5086424;28;20072;-73
2022/11/07 00:59:33;;;;;;;0.10;0.10;;;11.00;99.90;;;;;;5086886;28;20044;-72
2022/11/07 01:01:58;;;;;;;0.10;0.10;;;10.90;99.90;;;;;;5084317;28;20105;-73
2022/11/07 01:07:08;;;;;;;0.20;0.20;;;10.90;99.90;;;;;;5070787;28;20380;-72
2022/11/07 01:09:34;;;;;;;0.10;0.10;;;11.00;99.90;;;;;;5088041;28;20044;-73
2022/11/07 01:11:59;;;;;;;0.20;0.20;;;10.90;99.90;;;;;;5069121;28;20049;-72
2022/11/07 01:14:25;;;;;;;0.10;0.10;;;11.00;99.90;;;;;;5078023;28;20036;-72
2022/11/07 01:16:51;;;;;;;0.20;0.20;;;10.90;99.90;;;;;;5105780;28;20045;-72
2022/11/07 01:19:18;;;;;;;0.20;0.20;;;10.90;99.90;;;;;;5079456;28;20545;-73
2022/11/07 01:21:44;;;;;;;0.10;0.10;;;11.00;99.90;;;;;;5084040;28;20036;-72
2022/11/07 01:24:11;;;;;;;0.10;0.10;;;10.90;99.90;;;;;;5081379;28;20135;-72
2022/11/07 01:26:37;;;;;;;0.20;0.20;;;11.00;99.90;;;;;;5081091;28;20494;-72
2022/11/07 01:29:03;;;;;;;0.20;0.20;;;11.00;99.90;;;;;;5070559;28;20140;-73
2022/11/07 01:31:32;;;;;;;0.17;0.17;;;11.10;99.90;;;;;;5071694;28;20131;-72
2022/11/07 01:33:59;;;;;;;0.10;0.10;;;11.00;99.90;;;;;;5104801;28;20053;-73
2022/11/07 01:36:25;;;;;;;0.10;0.10;;;11.00;99.90;;;;;;5088422;28;20036;-72
2022/11/07 01:38:50;;;;;;;0.10;0.10;;;11.10;99.90;;;;;;5089736;28;20075;-72
2022/11/07 01:41:24;;;;;;;0.20;0.20;;;11.10;99.90;;;;;;5072102;28;20064;-72
2022/11/07 01:43:55;;;;;;;0.20;0.20;;;11.10;99.90;;;;;;5081193;28;20040;-73
2022/11/07 01:46:26;;;;;;;0.10;0.10;;;11.10;99.90;;;;;;5087642;28;20665;-72
2022/11/07 01:49:01;;;;;;;0.10;0.10;;;11.00;99.90;;;;;;5090596;28;20044;-72
2022/11/07 01:51:29;;;;;;;0.10;0.10;;;11.00;99.90;;;;;;5081439;28;20796;-72
2022/11/07 01:53:55;;;;;;;0.20;0.20;;;11.10;99.90;;;;;;5091344;28;20047;-73
2022/11/07 01:56:24;;;;;;;0.20;0.20;;;11.10;99.90;;;;;;5110483;27;20051;-72
2022/11/07 01:58:53;;;;;;;0.15;0.15;;;11.10;99.90;;;;;;5087172;28;20051;-72
2022/11/07 02:01:18;;;;;;;0.20;0.20;;;11.10;99.90;;;;;;5086142;28;20040;-73
2022/11/07 02:03:45;;;;;;;0.10;0.10;;;11.00;99.90;;;;;;5090723;28;20043;-72
2022/11/07 02:06:16;;;;;;;0.20;0.20;;;11.10;99.90;;;;;;5089659;28;20048;-73
2022/11/07 02:08:44;;;;;;;0.20;0.20;;;11.10;99.90;;;;;;5086858;28;20055;-73
2022/11/07 02:11:11;;;;;;;0.10;0.10;;;11.10;99.90;;;;;;5091995;28;20047;-73
2022/11/07 02:13:36;;;;;;;0.10;0.10;;;11.10;99.90;;;;;;5077866;28;20044;-73
2022/11/07 02:16:04;;;;;;;0.20;0.20;;;11.10;99.90;;;;;;5080551;28;20072;-72
2022/11/07 02:18:31;;;;;;;0.13;0.13;;;11.00;99.90;;;;;;5086162;28;20452;-72
2022/11/07 02:21:02;;;;;;;0.20;0.20;;;11.10;99.90;;;;;;5079589;28;20040;-72
2022/11/07 02:23:39;;;;;;;0.10;0.10;;;11.10;99.90;;;;;;5080626;28;20040;-72
2022/11/07 02:26:05;;;;;;;0.10;0.10;;;11.10;99.90;;;;;;5080241;28;20045;-72
2022/11/07 02:28:33;;;;;;;0.13;0.13;;;11.10;99.90;;;;;;5071985;28;20056;-72
2022/11/07 02:30:58;;;;;;;0.10;0.10;;;11.40;99.90;;;;;;5109901;27;20605;-72
2022/11/07 02:33:24;;;;;;;0.10;0.10;;;11.20;99.90;;;;;;5085380;28;20039;-72
2022/11/07 02:35:51;;;;;;;0.20;0.20;;;11.10;99.90;;;;;;5083024;28;20047;-72
2022/11/07 02:38:30;;;;;;;0.20;0.20;;;11.10;99.90;;;;;;5088643;28;20057;-73
2022/11/07 02:41:17;;;;;;;0.20;0.20;;;11.10;99.90;;;;;;5090997;28;20051;-72
2022/11/07 02:43:52;;;;;;;0.20;0.20;;;11.10;99.90;;;;;;5087090;28;20111;-73
2022/11/07 02:46:18;;;;;;;0.20;0.20;;;11.10;99.90;;;;;;5087965;28;20079;-72
2022/11/07 02:48:50;;;;;;;0.20;0.20;;;11.20;99.90;;;;;;5077592;28;20076;-73
2022/11/07 02:51:15;;;;;;;0.10;0.10;;;11.10;99.90;;;;;;5088962;28;20040;-73
2022/11/07 02:53:41;;;;;;;0.10;0.10;;;11.10;99.90;;;;;;5089842;28;20421;-73
2022/11/07 02:56:07;;;;;;;0.20;0.20;;;11.10;99.90;;;;;;5089760;28;20040;-74
2022/11/07 02:58:33;;;;;;;0.10;0.10;;;11.10;99.90;;;;;;5083541;28;20495;-74
2022/11/07 03:01:05;;;;;;;0.20;0.20;;;11.20;99.90;;;;;;5081322;28;20044;-72
2022/11/07 03:03:33;;;;;;;0.10;0.10;;;11.10;99.90;;;;;;5079576;28;20914;-73
2022/11/07 03:05:59;;;;;;;0.10;0.10;;;11.10;99.90;;;;;;5089790;28;20043;-72
2022/11/07 03:08:24;;;;;;;0.10;0.10;;;11.10;99.90;;;;;;5118876;27;20419;-72
2022/11/07 03:10:50;;;;;;;0.13;0.13;;;11.10;99.90;;;;;;5088687;28;20506;-72
2022/11/07 03:13:15;;;;;;;0.20;0.20;;;11.10;99.90;;;;;;5084428;28;20051;-72
2022/11/07 03:15:41;;;;;;;0.10;0.10;;;11.10;99.90;;;;;;5116630;27;20624;-72
2022/11/07 03:18:07;;;;;;;0.20;0.20;;;11.10;99.90;;;;;;5081566;28;20048;-72
2022/11/07 03:20:32;;;;;;;0.15;0.15;;;11.10;99.90;;;;;;5089397;28;20036;-72
2022/11/07 03:22:58;;;;;;;0.20;0.20;;;11.20;99.90;;;;;;5090802;28;20147;-72
2022/11/07 03:25:23;;;;;;;0.15;0.15;;;11.10;99.90;;;;;;5072995;28;20037;-72
2022/11/07 03:27:49;;;;;;;0.10;0.10;;;11.10;99.90;;;;;;5074518;28;20056;-72
2022/11/07 03:30:16;;;;;;;0.20;0.20;;;11.10;99.90;;;;;;5078215;28;20048;-72
2022/11/07 03:32:42;;;;;;;0.10;0.10;;;11.10;99.90;;;;;;5076520;28;20090;-72
2022/11/07 03:35:08;;;;;;;0.10;0.10;;;11.20;99.90;;;;;;5078559;28;20060;-72
2022/11/07 03:37:34;;;;;;;0.20;0.20;;;11.10;99.90;;;;;;5074177;28;20097;-72
2022/11/07 03:40:00;;;;;;;0.10;0.10;;;11.20;99.90;;;;;;5081441;28;20040;-72
2022/11/07 03:42:25;;;;;;;0.10;0.10;;;11.20;99.90;;;;;;5087491;28;20044;-72
2022/11/07 03:44:51;;;;;;;0.13;0.13;;;11.10;99.90;;;;;;5071227;28;20051;-72
2022/11/07 03:47:16;;;;;;;0.20;0.20;;;11.10;99.90;;;;;;5089120;28;20044;-72
2022/11/07 03:49:42;;;;;;;0.15;0.15;;;11.10;99.90;;;;;;5088499;28;20119;-71
2022/11/07 03:52:07;;;;;;;0.17;0.17;;;11.20;99.90;;;;;;5086804;28;20123;-73
2022/11/07 03:54:33;;;;;;;0.20;0.20;;;11.20;99.90;;;;;;5088462;28;20055;-72
2022/11/07 03:56:59;;;;;;;0.20;0.20;;;11.10;99.90;;;;;;5089083;28;20127;-72
2022/11/07 03:59:24;;;;;;;0.10;0.10;;;11.10;99.90;;;;;;5070906;28;20036;-71
2022/11/07 04:01:50;;;;;;;0.10;0.10;;;11.10;99.90;;;;;;5085234;28;20044;-72
2022/11/07 04:04:16;;;;;;;0.20;0.20;;;11.10;99.90;;;;;;5082738;28;20024;-72
2022/11/07 04:06:41;;;;;;;0.10;0.10;;;11.10;99.90;;;;;;5086545;28;20040;-72
2022/11/07 04:09:07;;;;;;;0.10;0.10;;;11.10;99.90;;;;;;5085893;28;20051;-72
2022/11/07 04:17:19;;;;;;;0.20;0.20;;;11.10;99.90;;;;;;5073423;28;20063;-72
2022/11/07 04:19:47;;;;;;;0.17;0.17;;;11.00;99.90;;;;;;5084007;28;20048;-72
2022/11/07 04:22:13;;;;;;;0.15;0.15;;;11.20;99.90;;;;;;5076836;28;20040;-72
2022/11/07 04:24:40;;;;;;;0.10;0.10;;;11.00;99.90;;;;;;5076748;28;20111;-72
2022/11/07 04:29:51;;;;;;;0.10;0.10;;;11.00;99.90;;;;;;5084021;28;20051;-72
2022/11/07 04:32:17;;;;;;;0.15;0.15;;;11.00;99.90;;;;;;5074382;28;20098;-72
2022/11/07 04:34:42;;;;;;;0.20;0.20;;;11.00;99.90;;;;;;5077546;28;20040;-72
2022/11/07 04:37:08;;;;;;;0.10;0.10;;;11.00;99.90;;;;;;5087431;28;20125;-72
2022/11/07 04:39:33;;;;;;;0.10;0.10;;;11.00;99.90;;;;;;5077357;28;20044;-71
2022/11/07 04:41:59;;;;;;;0.10;0.10;;;11.00;99.90;;;;;;5074548;28;20080;-72
2022/11/07 04:44:24;;;;;;;0.17;0.17;;;11.20;99.90;;;;;;5081395;28;20063;-72
2022/11/07 04:46:50;;;;;;;0.17;0.17;;;11.00;99.90;;;;;;5077374;28;20408;-72
2022/11/07 04:49:17;;;;;;;0.10;0.10;;;11.00;99.90;;;;;;5074903;28;20044;-72
2022/11/07 04:51:43;;;;;;;0.10;0.10;;;10.90;99.90;;;;;;5075978;28;20074;-73
2022/11/07 04:54:13;;;;;;;0.10;0.10;;;11.00;99.90;;;;;;5073273;28;20049;-72
2022/11/07 04:56:39;;;;;;;0.20;0.20;;;11.00;99.90;;;;;;5096199;28;20066;-74
2022/11/07 04:59:05;;;;;;;0.10;0.10;;;10.90;99.90;;;;;;5097539;28;20046;-72
2022/11/07 05:01:30;;;;;;;0.20;0.20;;;11.00;99.90;;;;;;5087027;28;20033;-72
2022/11/07 05:03:56;;;;;;;0.10;0.10;;;11.00;99.90;;;;;;5098369;28;20498;-72
2022/11/07 05:06:22;;;;;;;0.10;0.10;;;11.00;99.90;;;;;;5089112;28;20127;-72
2022/11/07 05:08:48;;;;;;;0.15;0.15;;;11.00;99.90;;;;;;5079929;28;20047;-74
2022/11/07 05:11:14;;;;;;;0.10;0.10;;;11.00;99.90;;;;;;5083732;28;20052;-73
2022/11/07 05:13:39;;;;;;;0.10;0.10;;;11.00;99.90;;;;;;5088702;28;20066;-72
2022/11/07 05:16:10;;;;;;;0.13;0.13;;;11.00;99.90;;;;;;5091774;28;20044;-72
2022/11/07 05:18:36;;;;;;;0.10;0.10;;;11.00;99.90;;;;;;5077514;28;20423;-72
2022/11/07 05:21:01;;;;;;;0.20;0.20;;;11.00;99.90;;;;;;5089678;28;20043;-73
2022/11/07 05:23:27;;;;;;;0.20;0.20;;;11.10;99.90;;;;;;5090559;28;20052;-72
2022/11/07 05:25:53;;;;;;;0.10;0.10;;;10.90;99.90;;;;;;5075638;28;20040;-73
2022/11/07 05:28:21;;;;;;;0.20;0.20;;;10.90;99.90;;;;;;5090209;28;20044;-73
2022/11/07 05:30:47;;;;;;;0.20;0.20;;;10.90;99.90;;;;;;5086362;28;20048;-72
2022/11/07 05:33:15;;;;;;;0.13;0.13;;;10.90;99.90;;;;;;5078278;28;20121;-71
2022/11/07 05:35:41;;;;;;;0.20;0.20;;;11.00;99.90;;;;;;5084790;28;20494;-72
2022/11/07 05:38:07;;;;;;;0.20;0.20;;;10.90;99.90;;;;;;5103151;28;20596;-74
2022/11/07 05:40:37;;;;;;;0.20;0.20;;;10.80;99.90;;;;;;5098297;28;20043;-72
2022/11/07 05:43:08;;;;;;;0.20;0.20;;;10.80;99.90;;;;;;5091636;28;20047;-72
2022/11/07 05:45:36;;;;;;;0.20;0.20;;;11.10;99.90;;;;;;5089827;28;20048;-72
2022/11/07 05:48:05;;;;;;;0.20;0.20;;;10.80;99.90;;;;;;5079471;28;20479;-72
2022/11/07 05:50:31;;;;;;;0.20;0.20;;;10.80;99.90;;;;;;5074452;28;20044;-72
2022/11/07 05:52:57;;;;;;;0.13;0.13;;;10.90;99.90;;;;;;5076212;28;20522;-72
2022/11/07 05:55:24;;;;;;;0.20;0.20;;;10.80;99.90;;;;;;5077280;28;20033;-72
2022/11/07 05:57:50;;;;;;;0.20;0.20;;;10.80;99.90;;;;;;5105140;28;20054;-72
2022/11/07 06:00:16;;;;;;;0.20;0.20;;;10.80;99.90;;;;;;5087189;28;20043;-72
2022/11/07 06:02:42;;;;;;;0.13;0.13;;;10.80;99.90;;;;;;5080067;28;20493;-72
2022/11/07 06:05:08;;;;;;;0.20;0.20;;;10.70;99.90;;;;;;5073703;28;20045;-73
2022/11/07 06:07:35;;;;;;;0.10;0.10;;;10.80;99.90;;;;;;5071934;28;20040;-72
2022/11/07 06:10:02;;;;;;;0.10;0.10;;;10.80;99.90;;;;;;5078410;28;20044;-72
2022/11/07 06:12:27;;;;;;;0.20;0.20;;;10.80;99.90;;;;;;5091493;28;20047;-72
2022/11/07 06:14:53;;;;;;;0.10;0.10;;;10.80;99.90;;;;;;5090392;28;20048;-72
2022/11/07 06:17:19;;;;;;;0.20;0.20;;;10.80;99.90;;;;;;5088904;28;20044;-72
2022/11/07 06:19:44;;;;;;;0.10;0.10;;;10.80;99.90;;;;;;5086156;28;20043;-72
2022/11/07 06:22:10;;;;;;;0.10;0.10;;;10.80;99.90;;;;;;5090070;28;20042;-73
2022/11/07 06:24:35;;;;;;;0.20;0.20;;;10.80;99.90;;;;;;5081341;28;20033;-72
2022/11/07 06:27:01;;;;;;;0.20;0.20;;;10.80;99.90;;;;;;5086494;28;20048;-72
2022/11/07 06:29:27;;;;;;;0.10;0.10;;;10.80;99.90;;;;;;5088412;28;20084;-72
2022/11/07 06:31:52;;;;;;;0.17;0.17;;;10.80;99.90;;;;;;5084253;28;20487;-72
2022/11/07 06:34:18;;;;;;;0.20;0.20;;;10.90;99.90;;;;;;5087839;28;20110;-72
2022/11/07 06:36:44;;;;;;;0.10;0.10;;;11.20;99.90;;;;;;5090012;28;20126;-72
2022/11/07 06:39:09;;;;;;;0.20;0.20;;;10.80;99.90;;;;;;5087565;28;20044;-72
2022/11/07 06:41:35;;;;;;;0.10;0.10;;;10.80;99.90;;;;;;5088209;28;20066;-72
2022/11/07 06:44:00;;;;;;;0.10;0.10;;;10.90;99.90;;;;;;5080882;28;20344;-72
2022/11/07 06:46:26;;;;;;;0.20;0.20;;;10.80;99.90;;;;;;5090733;28;20051;-72
2022/11/07 06:48:53;;;;;;;0.20;0.20;;;10.90;99.90;;;;;;5089681;28;20266;-72
2022/11/07 06:51:18;;;;;;;0.10;0.10;;;10.90;99.90;;;;;;5090872;28;20044;-72
2022/11/07 06:53:44;;;;;;;0.20;0.20;;;10.80;99.90;;;;;;5075485;28;20032;-71
2022/11/07 06:56:14;;;;;;;0.20;0.20;;;10.80;99.90;;;;;;5086365;28;20089;-72
2022/11/07 06:58:39;;;;;;;0.10;0.10;;;10.90;99.90;;;;;;5077509;28;20059;-72
2022/11/07 07:01:08;;;;;;;0.20;0.20;;;10.80;99.90;;;;;;5081246;28;20111;-71
2022/11/07 07:03:34;;;;;;;0.20;0.20;;;10.90;99.90;;;;;;5079557;28;20123;-72
2022/11/07 07:06:05;;;;;;;0.20;0.20;;;10.90;99.90;;;;;;5076220;28;20660;-72
2022/11/07 07:08:31;;;;;;;0.20;0.20;;;10.80;99.90;;;;;;5072053;28;20616;-72
2022/11/07 07:11:04;;;;;;;0.10;0.10;;;10.90;99.90;;;;;;5082086;28;20040;-72
2022/11/07 07:13:30;;;;;;;0.20;0.20;;;10.80;99.90;;;;;;5084023;28;20679;-71
2022/11/07 07:15:57;;;;;;;0.10;0.10;;;10.80;99.90;;;;;;5078154;28;20063;-72
2022/11/07 07:18:24;;;;;;;0.15;0.15;;;10.80;99.90;;;;;;5073924;28;20062;-71
2022/11/07 07:20:50;;;;;;;0.20;0.20;;;10.90;99.90;;;;;;5075349;28;20040;-73
2022/11/07 07:23:17;;;;;;;0.13;0.13;;;10.80;99.90;;;;;;5071859;28;20036;-72
2022/11/07 07:25:43;;;;;;;0.20;0.20;;;10.80;99.90;;;;;;5079050;28;20092;-71
2022/11/07 07:28:09;;;;;;;0.10;0.10;;;10.90;99.90;;;;;;5085884;28;20040;-72
2022/11/07 07:30:35;;;;;;;0.20;0.20;;;10.80;99.90;;;;;;5070687;28;20067;-72
2022/11/07 07:33:00;;;;;;;0.20;0.20;;;10.90;99.90;;;;;;5075903;28;20521;-72
2022/11/07 07:35:26;;;;;;;0.20;0.20;;;10.80;99.90;;;;;;5081769;28;20084;-71
2022/11/07 07:37:51;;;;;;;0.10;0.10;;;10.80;99.90;;;;;;5079003;28;20491;-71
2022/11/07 07:40:20;;;;;;;0.10;0.10;;;10.90;99.90;;;;;;5078827;28;20088;-72
2022/11/07 07:42:46;;;;;;;0.10;0.10;;;10.80;99.90;;;;;;5078351;28;20032;-71
2022/11/07 07:45:13;;;;;;;0.10;0.10;;;10.90;99.90;;;;;;5083362;28;20505;-73
2022/11/07 07:47:39;;;;;;;0.20;0.20;;;10.90;99.90;;;;;;5069833;28;20041;-72
2022/11/07 07:50:07;;;;;;;0.20;0.20;;;10.90;99.90;;;;;;5071914;28;20615;-72
2022/11/07 07:52:33;;;;;;;0.20;0.20;;;10.90;99.90;;;;;;5085733;28;20097;-72
2022/11/07 07:54:58;;;;;;;0.15;0.15;;;10.90;99.90;;;;;;5089743;28;20079;-72
2022/11/07 07:57:24;;;;;;;0.10;0.10;;;10.90;99.90;;;;;;5079847;28;20115;-72
2022/11/07 07:59:50;;;;;;;0.10;0.10;;;11.10;99.90;;;;;;5088502;28;20043;-72
2022/11/07 08:02:15;;;;;;;0.20;0.20;;;11.00;99.90;;;;;;5082315;28;20139;-72
2022/11/07 08:04:41;;;;;;;0.20;0.20;;;11.00;99.90;;;;;;5086504;28;20048;-71
2022/11/07 08:07:07;;;;;;;0.15;0.15;;;10.90;99.90;;;;;;5087944;28;20031;-72
2022/11/07 08:09:35;;;;;;;0.10;0.10;;;10.90;99.90;;;;;;5073615;28;20087;-71
2022/11/07 08:12:05;;;;;;;0.20;0.20;;;11.00;99.90;;;;;;5076875;28;20044;-71
2022/11/07 08:14:31;;;;;;;0.10;0.10;;;11.00;99.90;;;;;;5081983;28;20584;-72
2022/11/07 08:16:57;;;;;;;0.20;0.20;;;11.00;99.90;;;;;;5074022;28;20032;-72
2022/11/07 08:19:23;;;;;;;0.10;0.10;;;11.00;99.90;;;;;;5076692;28;20078;-71
2022/11/07 08:21:49;;;;;;;0.10;0.10;;;11.10;99.90;;;;;;5075810;28;20044;-71
2022/11/07 08:24:14;;;;;;;0.13;0.13;;;11.00;99.90;;;;;;5071278;28;20471;-71
2022/11/07 08:26:40;;;;;;;0.20;0.20;;;11.10;99.90;;;;;;5076612;28;20045;-72
2022/11/07 08:29:06;;;;;;;0.20;0.20;;;11.10;99.90;;;;;;5077544;28;20063;-72
2022/11/07 08:31:32;;;;;;;0.20;0.20;;;11.10;99.90;;;;;;5083000;28;20036;-71
2022/11/07 08:33:58;;;;;;;0.10;0.10;;;11.10;99.90;;;;;;5076911;28;20041;-72
2022/11/07 08:36:25;;;;;;;0.10;0.10;;;11.10;99.90;;;;;;5072866;28;20044;-72
2022/11/07 08:38:51;;;;;;;0.10;0.10;;;11.00;99.90;;;;;;5078543;28;20059;-71
2022/11/07 08:41:17;;;;;;;0.10;0.10;;;11.10;99.90;;;;;;5090542;28;20423;-71
2022/11/07 08:43:43;;;;;;;0.20;0.20;;;11.10;99.90;;;;;;5087695;28;20040;-72
2022/11/07 08:46:09;;;;;;;0.10;0.10;;;11.10;99.90;;;;;;5092245;28;20036;-72
2022/11/07 08:48:34;;;;;;;0.20;0.20;;;11.10;99.90;;;;;;5078296;28;20786;-71
2022/11/07 08:51:03;;;;;;;0.20;0.20;;;11.20;99.90;;;;;;5089961;28;20029;-71
2022/11/07 08:53:29;;;;;;;0.10;0.10;;;11.20;99.90;;;;;;5077546;28;20070;-72
2022/11/07 08:56:07;;;;;;;0.10;0.10;;;11.10;99.90;;;;;;5082699;28;20040;-71
2022/11/07 08:58:33;;;;;;;0.20;0.20;;;11.10;99.90;;;;;;5079943;28;20101;-73
2022/11/07 09:00:59;;;;;;;0.10;0.10;;;11.30;99.90;;;;;;5090085;28;20047;-72
2022/11/07 09:03:25;;;;;;;0.10;0.10;;;11.10;99.90;;;;;;5084068;28;20479;-72
2022/11/07 09:05:51;;;;;;;0.20;0.20;;;11.20;99.90;;;;;;5090350;28;20061;-72
2022/11/07 09:08:17;;;;;;;0.20;0.20;;;11.10;99.90;;;;;;5078493;28;20041;-72
2022/11/07 09:10:43;;;;;;;0.10;0.10;;;11.20;99.90;;;;;;5086623;28;20050;-73
2022/11/07 09:13:09;;;;;;;0.20;0.20;;;11.20;99.90;;;;;;5085838;28;20047;-72
2022/11/07 09:15:34;;;;;;;0.10;0.10;;;11.20;99.90;;;;;;5077404;28;20463;-73
2022/11/07 09:18:05;;;;;;;0.20;0.20;;;11.30;99.90;;;;;;5094454;28;20047;-72
2022/11/07 09:20:31;;;;;;;0.20;0.20;;;11.30;99.90;;;;;;5092420;28;20490;-72
2022/11/07 09:22:58;;;;;;;0.10;0.10;;;11.30;99.90;;;;;;5079317;28;20093;-73
2022/11/07 09:25:25;;;;;;;0.20;0.20;;;11.30;99.90;;;;;;5079340;28;20509;-72
2022/11/07 09:27:50;;;;;;;0.10;0.10;;;11.40;99.90;;;;;;5077057;28;20059;-72
2022/11/07 09:30:17;;;;;;;0.17;0.17;;;11.30;99.90;;;;;;5078190;28;20063;-72
2022/11/07 09:32:43;;;;;;;0.20;0.20;;;11.40;99.90;;;;;;5090346;28;20375;-72
2022/11/07 09:35:09;;;;;;;0.20;0.20;;;11.40;99.90;;;;;;5090600;28;20036;-73
2022/11/07 09:37:38;;;;;;;0.20;0.20;;;11.70;99.90;;;;;;5079807;28;20040;-72
2022/11/07 09:40:14;;;;;;;0.15;0.15;;;11.60;99.90;;;;;;5079645;28;20045;-72
2022/11/07 09:42:56;;;;;;;0.20;0.20;;;11.50;99.90;;;;;;5079175;28;20128;-72
2022/11/07 09:45:21;;;;;;;;;;;11.50;99.90;;;;;;5081949;28;20044;-73
2022/11/07 09:47:53;;;;;;;0.20;0.20;;;11.60;99.90;;;;;;5080310;28;19935;-72
2022/11/07 09:50:34;;;;;;;0.10;0.10;;;11.60;99.90;;;;;;5091667;28;20024;-75
2022/11/07 09:53:00;;;;;;;0.10;0.10;;;11.70;99.90;;;;;;5083152;28;20042;-73
2022/11/07 09:55:40;;;;;;;0.10;0.10;;;12.00;99.90;;;;;;5085849;28;20135;-74
2022/11/07 09:58:25;;;;;;;0.10;0.10;;;11.70;99.90;;;;;;5079572;28;20040;-73
2022/11/07 10:00:53;;;;;;;0.20;0.20;;;11.70;99.90;;;;;;5082597;28;20142;-73
2022/11/07 10:03:19;;;;;;;0.20;0.20;;;11.90;99.90;;;;;;5083509;28;20040;-73
2022/11/07 10:06:21;;;;;;;0.13;0.13;;;11.90;99.90;;;;;;5086703;28;20197;-73
2022/11/07 10:09:28;;;;;;;0.10;0.10;;;11.80;99.90;;;;;;5084127;28;20119;-73
2022/11/07 10:12:32;;;;;;;0.10;0.10;;;11.90;99.90;;;;;;5072133;28;20114;-73
2022/11/07 10:15:16;;;;;;;0.10;0.10;;;11.90;99.90;;;;;;5089640;27;20418;-73
2022/11/07 10:18:24;;;;;;;0.20;0.20;;;11.90;99.90;;;;;;5085265;28;20048;-73
2022/11/07 10:21:10;;;;;;;0.10;0.10;;;11.90;99.90;;;;;;5052259;28;20060;-73
2022/11/07 10:24:01;;;;;;;0.10;0.10;;;11.90;99.90;;;;;;5082204;28;20560;-74
2022/11/07 10:26:29;;;;;;;0.20;0.20;;;12.00;99.90;;;;;;5087909;28;20047;-73
2022/11/07 10:29:15;;;;;;;0.20;0.20;;;12.10;99.90;;;;;;5083456;28;20133;-73
2022/11/07 10:31:49;;;;;;;0.20;0.20;;;12.00;99.90;;;;;;5076694;28;20865;-73
2022/11/07 10:34:21;;;;;;;0.10;0.10;;;12.10;99.90;;;;;;5091504;28;20040;-73
2022/11/07 10:36:47;;;;;;;0.10;0.10;;;12.10;99.90;;;;;;5084753;28;20044;-74
2022/11/07 10:39:16;;;;;;;0.10;0.10;;;12.20;99.90;;;;;;5083380;28;20036;-73
2022/11/07 10:41:48;;;;;;;0.10;0.10;;;12.20;99.90;;;;;;5072697;28;20127;-73
2022/11/07 10:44:23;;;;;;;0.10;0.10;;;12.30;99.90;;;;;;5077122;28;20049;-73
2022/11/07 10:46:49;;;;;;;0.20;0.20;;;12.30;99.90;;;;;;5076513;28;20047;-73
2022/11/07 10:49:20;;;;;;;0.20;0.20;;;12.30;99.90;;;;;;5107389;27;20041;-73
2022/11/07 10:51:47;;;;;;;0.10;0.10;;;12.30;99.90;;;;;;5085655;28;20052;-74
2022/11/07 10:54:25;;;;;;;0.20;0.20;;;12.40;99.90;;;;;;5073607;28;20131;-73
2022/11/07 10:57:04;;;;;;;0.20;0.20;;;12.40;99.90;;;;;;5078904;28;20048;-73
2022/11/07 10:59:33;;;;;;;0.20;0.20;;;12.40;99.90;;;;;;5073466;28;20048;-74
2022/11/07 11:02:00;;;;;;;0.10;0.10;;;12.50;99.90;;;;;;5076911;28;20445;-73
2022/11/07 11:04:29;;;;;;;0.17;0.17;;;12.60;99.90;;;;;;5072419;28;20414;-72
2022/11/07 11:07:02;;;;;;;0.20;0.20;;;13.00;99.90;;;;;;5080617;28;20036;-73
2022/11/07 11:09:33;;;;;;;0.10;0.10;;;12.60;99.90;;;;;;5083855;28;20579;-72
2022/11/07 11:12:06;;;;;;;;;;;12.70;99.90;;;;;;5077332;28;20052;-72
2022/11/07 11:14:32;;;;;;;0.20;0.20;;;12.60;99.90;;;;;;5079850;28;20262;-72
2022/11/07 11:16:57;;;;;;;0.20;0.20;;;12.90;99.90;;;;;;5085980;28;20040;-72
2022/11/07 11:19:30;;;;;;;0.10;0.10;;;12.60;99.90;;;;;;5072646;28;20391;-73
2022/11/07 11:21:57;;;;;;;0.13;0.13;;;12.60;99.90;;;;;;5073522;28;20039;-73
2022/11/07 11:24:28;;;;;;;0.17;0.17;;;12.60;99.90;;;;;;5068444;28;20502;-73
2022/11/07 11:26:54;;;;;;;;;;;12.60;99.90;;;;;;5077072;28;20083;-73
2022/11/07 11:29:26;;;;;;;0.10;0.10;;;12.60;99.90;;;;;;5070325;28;20053;-73
2022/11/07 11:31:56;;;;;;;0.15;0.15;;;12.60;99.90;;;;;;5066815;28;20121;-73
2022/11/07 11:34:44;;;;;;;0.20;0.20;;;12.60;99.90;;;;;;5075455;28;20048;-73
2022/11/07 11:37:27;;;;;;;0.10;0.10;;;12.70;99.90;;;;;;5069276;28;20097;-73
2022/11/07 11:40:01;;;;;;;0.10;0.10;;;12.70;99.90;;;;;;5068588;28;20044;-73
2022/11/07 11:42:32;;;;;;;0.10;0.10;;;12.70;99.90;;;;;;5068866;28;20407;-73
2022/11/07 11:45:15;;;;;;;0.20;0.20;;;12.70;99.90;;;;;;5075559;28;20059;-73
2022/11/07 11:47:50;;;;;;;0.20;0.20;;;12.70;99.90;;;;;;5074309;28;20048;-73
2022/11/07 11:50:21;;;;;;;0.20;0.20;;;12.80;99.90;;;;;;5067912;28;20044;-73
2022/11/07 11:52:47;;;;;;;0.20;0.20;;;12.80;99.90;;;;;;5069272;28;20044;-72
2022/11/07 11:55:15;;;;;;;0.10;0.10;;;12.90;99.90;;;;;;5067733;28;20484;-73
2022/11/07 11:58:04;;;;;;;0.10;0.10;;;12.80;99.90;;;;;;5067433;28;20044;-73
2022/11/07 12:00:41;;;;;;;0.10;0.10;;;12.90;99.90;;;;;;5078366;28;20097;-73
2022/11/07 12:03:33;;;;;;;0.13;0.13;;;13.00;99.90;;;;;;5072642;28;20515;-73
2022/11/07 12:06:14;;;;;;;0.10;0.10;;;13.20;99.90;;;;;;5064208;28;20125;-73
2022/11/07 12:08:43;;;;;;;;;;;13.00;99.90;;;;;;5077919;28;20059;-73
2022/11/07 12:11:33;;;;;;;0.10;0.10;;;13.00;99.90;;;;;;5070083;28;19968;-73
2022/11/07 12:14:37;;;;;;;0.20;0.20;;;13.10;99.90;;;;;;5071770;28;20075;-73
2022/11/07 12:17:09;;;;;;;0.20;0.20;;;13.10;99.90;;;;;;5073876;28;20064;-73
2022/11/07 12:19:53;;;;;;;0.10;0.10;;;13.20;99.90;;;;;;5077601;28;20558;-72
2022/11/07 12:22:30;;;;;;;0.10;0.10;;;13.40;99.90;;;;;;5073536;28;20089;-72
2022/11/07 12:25:18;;;;;;;0.10;0.10;;;13.40;99.90;;;;;;5079183;28;20403;-72
2022/11/07 12:28:07;;;;;;;0.10;0.10;;;13.40;99.90;;;;;;5084556;28;20120;-72
2022/11/07 12:30:51;;;;;;;0.20;0.20;;;13.40;99.90;;;;;;5071663;28;20106;-73
2022/11/07 12:33:32;;;;;;;0.10;0.10;;;13.50;99.90;;;;;;5071768;28;20040;-72
2022/11/07 12:36:33;;;;;;;0.20;0.20;;;13.60;99.90;;;;;;5070407;28;20120;-71
2022/11/07 12:39:37;;;;;;;0.10;0.10;;;13.60;99.90;;;;;;5068438;28;20364;-72
2022/11/07 12:42:07;;;;;;;0.20;0.20;;;13.70;99.90;;;;;;5072200;28;20547;-71
2022/11/07 12:45:05;;;;;;;0.10;0.10;;;13.80;99.90;;;;;;5071875;28;20040;-72
2022/11/07 12:47:37;;;;;;;0.15;0.15;;;13.90;99.90;;;;;;5070040;28;20076;-72
2022/11/07 12:50:32;;;;;;;0.20;0.20;;;13.90;99.90;;;;;;5075913;28;20040;-73
2022/11/07 12:53:21;;;;;;;0.10;0.10;;;13.90;99.90;;;;;;5073848;28;20072;-72
2022/11/07 12:56:08;;;;;;;0.20;0.20;;;14.00;99.90;;;;;;5071143;28;20123;-72
2022/11/07 12:58:36;;;;;;;0.20;0.20;;;14.00;99.90;;;;;;5073439;28;20794;-73
2022/11/07 13:01:03;;;;;;;0.20;0.20;;;14.00;99.90;;;;;;5071053;28;20490;-71
2022/11/07 13:03:58;;;;;;;0.20;0.20;;;14.10;99.90;;;;;;5070287;28;20048;-71
2022/11/07 13:06:38;;;;;;;0.10;0.10;;;14.00;99.90;;;;;;5077782;28;20048;-72
2022/11/07 13:09:21;;;;;;;0.17;0.17;;;14.00;99.90;;;;;;5073195;28;20086;-73
2022/11/07 13:12:18;;;;;;;0.10;0.10;;;14.00;99.90;;;;;;5072270;28;20730;-72